sensor_id;sensor_type;location;lat;lon;timestamp;P1;durP1;ratioP1;P2;durP2;ratioP2
10489;SDS011;35569;48.402;10.670;2022-10-23T00:00:21;6.00;;;5.60;;
10489;SDS011;35569;48.402;10.670;2022-10-23T00:00:54;6.10;;;5.70;;
10489;SDS011;35569;48.402;10.670;2022-10-23T00:01:26;6.40;;;5.90;;
10489;SDS011;35569;48.402;10.670;2022-10-23T00:02:02;7.10;;;6.50;;
10489;SDS011;35569;48.402;10.670;2022-10-23T00:02:34;8.00;;;6.20;;
10489;SDS011;35569;48.402;10.670;2022-10-23T00:03:07;6.20;;;5.80;;
10489;SDS011;35569;48.402;10.670;2022-10-23T00:03:42;6.43;;;5.93;;
10489;SDS011;35569;48.402;10.670;2022-10-23T00:04:15;6.03;;;5.63;;
10489;SDS011;35569;48.402;10.670;2022-10-23T00:04:49;6.73;;;6.13;;
10489;SDS011;35569;48.402;10.670;2022-10-23T00:05:24;6.80;;;6.10;;
10489;SDS011;35569;48.402;10.670;2022-10-23T00:05:57;6.63;;;6.13;;
10489;SDS011;35569;48.402;10.670;2022-10-23T00:06:33;6.17;;;5.87;;
10489;SDS011;35569;48.402;10.670;2022-10-23T00:07:08;5.23;;;4.90;;
10489;SDS011;35569;48.402;10.670;2022-10-23T00:07:40;6.77;;;6.27;;
10489;SDS011;35569;48.402;10.670;2022-10-23T00:08:12;6.23;;;5.83;;
10489;SDS011;35569;48.402;10.670;2022-10-23T00:08:47;6.60;;;6.00;;
10489;SDS011;35569;48.402;10.670;2022-10-23T00:09:21;7.00;;;6.50;;
10489;SDS011;35569;48.402;10.670;2022-10-23T00:09:57;6.37;;;5.83;;
10489;SDS011;35569;48.402;10.670;2022-10-23T00:10:29;6.30;;;5.90;;
10489;SDS011;35569;48.402;10.670;2022-10-23T00:11:04;6.37;;;5.83;;
10489;SDS011;35569;48.402;10.670;2022-10-23T00:11:37;6.30;;;5.80;;
10489;SDS011;35569;48.402;10.670;2022-10-23T00:12:14;6.53;;;5.93;;
10489;SDS011;35569;48.402;10.670;2022-10-23T00:12:47;6.30;;;5.80;;
10489;SDS011;35569;48.402;10.670;2022-10-23T00:13:19;6.30;;;5.80;;
10489;SDS011;35569;48.402;10.670;2022-10-23T00:13:55;6.03;;;5.53;;
10489;SDS011;35569;48.402;10.670;2022-10-23T00:14:28;6.80;;;6.30;;
10489;SDS011;35569;48.402;10.670;2022-10-23T00:15:00;6.80;;;6.30;;
10489;SDS011;35569;48.402;10.670;2022-10-23T00:15:35;5.73;;;5.33;;
10489;SDS011;35569;48.402;10.670;2022-10-23T00:16:08;6.23;;;5.80;;
10489;SDS011;35569;48.402;10.670;2022-10-23T00:16:40;6.53;;;6.03;;
10489;SDS011;35569;48.402;10.670;2022-10-23T00:17:15;6.20;;;5.70;;
10489;SDS011;35569;48.402;10.670;2022-10-23T00:17:47;6.13;;;5.63;;
10489;SDS011;35569;48.402;10.670;2022-10-23T00:18:20;6.80;;;6.30;;
10489;SDS011;35569;48.402;10.670;2022-10-23T00:18:55;6.50;;;6.00;;
10489;SDS011;35569;48.402;10.670;2022-10-23T00:19:28;6.17;;;5.60;;
10489;SDS011;35569;48.402;10.670;2022-10-23T00:20:00;6.73;;;6.17;;
10489;SDS011;35569;48.402;10.670;2022-10-23T00:20:35;6.73;;;6.23;;
10489;SDS011;35569;48.402;10.670;2022-10-23T00:21:08;6.53;;;5.93;;
10489;SDS011;35569;48.402;10.670;2022-10-23T00:21:44;6.50;;;6.00;;
10489;SDS011;35569;48.402;10.670;2022-10-23T00:22:19;6.63;;;6.13;;
10489;SDS011;35569;48.402;10.670;2022-10-23T00:22:51;6.10;;;5.70;;
10489;SDS011;35569;48.402;10.670;2022-10-23T00:23:23;6.67;;;6.20;;
10489;SDS011;35569;48.402;10.670;2022-10-23T00:23:55;5.77;;;5.47;;
10489;SDS011;35569;48.402;10.670;2022-10-23T00:24:30;6.23;;;5.73;;
10489;SDS011;35569;48.402;10.670;2022-10-23T00:25:03;6.67;;;5.83;;
10489;SDS011;35569;48.402;10.670;2022-10-23T00:25:36;6.10;;;5.80;;
10489;SDS011;35569;48.402;10.670;2022-10-23T00:26:12;5.80;;;5.40;;
10489;SDS011;35569;48.402;10.670;2022-10-23T00:26:47;6.27;;;5.87;;
10489;SDS011;35569;48.402;10.670;2022-10-23T00:27:22;6.30;;;5.80;;
10489;SDS011;35569;48.402;10.670;2022-10-23T00:27:55;5.70;;;5.30;;
10489;SDS011;35569;48.402;10.670;2022-10-23T00:28:27;5.03;;;4.83;;
10489;SDS011;35569;48.402;10.670;2022-10-23T00:29:02;5.50;;;5.20;;
10489;SDS011;35569;48.402;10.670;2022-10-23T00:29:35;6.47;;;5.93;;
10489;SDS011;35569;48.402;10.670;2022-10-23T00:30:07;4.90;;;4.70;;
10489;SDS011;35569;48.402;10.670;2022-10-23T00:30:43;5.60;;;5.23;;
10489;SDS011;35569;48.402;10.670;2022-10-23T00:31:15;5.90;;;5.40;;
10489;SDS011;35569;48.402;10.670;2022-10-23T00:31:47;6.73;;;6.20;;
10489;SDS011;35569;48.402;10.670;2022-10-23T00:32:22;6.30;;;5.80;;
10489;SDS011;35569;48.402;10.670;2022-10-23T00:32:54;6.57;;;6.10;;
10489;SDS011;35569;48.402;10.670;2022-10-23T00:33:27;6.97;;;6.37;;
10489;SDS011;35569;48.402;10.670;2022-10-23T00:34:02;5.47;;;5.20;;
10489;SDS011;35569;48.402;10.670;2022-10-23T00:34:38;6.00;;;5.60;;
10489;SDS011;35569;48.402;10.670;2022-10-23T00:35:11;6.73;;;6.13;;
10489;SDS011;35569;48.402;10.670;2022-10-23T00:35:46;6.93;;;6.33;;
10489;SDS011;35569;48.402;10.670;2022-10-23T00:36:18;6.40;;;6.07;;
10489;SDS011;35569;48.402;10.670;2022-10-23T00:36:54;6.37;;;5.87;;
10489;SDS011;35569;48.402;10.670;2022-10-23T00:37:29;5.87;;;5.47;;
10489;SDS011;35569;48.402;10.670;2022-10-23T00:38:01;7.20;;;6.60;;
10489;SDS011;35569;48.402;10.670;2022-10-23T00:38:33;6.03;;;5.63;;
10489;SDS011;35569;48.402;10.670;2022-10-23T00:39:08;6.73;;;6.13;;
10489;SDS011;35569;48.402;10.670;2022-10-23T00:39:40;6.00;;;5.60;;
10489;SDS011;35569;48.402;10.670;2022-10-23T00:40:13;6.27;;;5.77;;
10489;SDS011;35569;48.402;10.670;2022-10-23T00:40:47;6.43;;;5.93;;
10489;SDS011;35569;48.402;10.670;2022-10-23T00:41:40;6.00;;;5.60;;
10489;SDS011;35569;48.402;10.670;2022-10-23T00:42:14;5.90;;;5.50;;
10489;SDS011;35569;48.402;10.670;2022-10-23T00:42:50;6.17;;;5.67;;
10489;SDS011;35569;48.402;10.670;2022-10-23T00:43:24;6.30;;;5.80;;
10489;SDS011;35569;48.402;10.670;2022-10-23T00:43:59;6.10;;;5.80;;
10489;SDS011;35569;48.402;10.670;2022-10-23T00:45:37;6.00;;;5.70;;
10489;SDS011;35569;48.402;10.670;2022-10-23T00:46:12;6.13;;;5.67;;
10489;SDS011;35569;48.402;10.670;2022-10-23T00:46:44;6.23;;;5.83;;
10489;SDS011;35569;48.402;10.670;2022-10-23T00:47:17;5.07;;;4.77;;
10489;SDS011;35569;48.402;10.670;2022-10-23T00:47:51;6.23;;;5.83;;
10489;SDS011;35569;48.402;10.670;2022-10-23T00:48:25;6.10;;;5.70;;
10489;SDS011;35569;48.402;10.670;2022-10-23T00:48:58;5.73;;;5.40;;
10489;SDS011;35569;48.402;10.670;2022-10-23T00:49:33;5.83;;;5.50;;
10489;SDS011;35569;48.402;10.670;2022-10-23T00:50:08;5.40;;;5.10;;
10489;SDS011;35569;48.402;10.670;2022-10-23T00:50:41;5.60;;;5.30;;
10489;SDS011;35569;48.402;10.670;2022-10-23T00:51:16;5.77;;;5.47;;
10489;SDS011;35569;48.402;10.670;2022-10-23T00:51:49;6.10;;;5.60;;
10489;SDS011;35569;48.402;10.670;2022-10-23T00:52:25;5.40;;;5.00;;
10489;SDS011;35569;48.402;10.670;2022-10-23T00:53:01;5.60;;;5.30;;
10489;SDS011;35569;48.402;10.670;2022-10-23T00:53:34;6.60;;;5.20;;
10489;SDS011;35569;48.402;10.670;2022-10-23T00:54:06;6.70;;;5.50;;
10489;SDS011;35569;48.402;10.670;2022-10-23T00:54:57;5.60;;;5.30;;
10489;SDS011;35569;48.402;10.670;2022-10-23T00:55:30;5.90;;;5.40;;
10489;SDS011;35569;48.402;10.670;2022-10-23T00:56:03;6.07;;;5.67;;
10489;SDS011;35569;48.402;10.670;2022-10-23T00:56:39;5.70;;;5.30;;
10489;SDS011;35569;48.402;10.670;2022-10-23T00:57:13;6.17;;;5.80;;
10489;SDS011;35569;48.402;10.670;2022-10-23T00:57:46;5.50;;;5.10;;
10489;SDS011;35569;48.402;10.670;2022-10-23T00:58:22;5.90;;;5.50;;
10489;SDS011;35569;48.402;10.670;2022-10-23T00:58:54;5.70;;;5.30;;
10489;SDS011;35569;48.402;10.670;2022-10-23T00:59:27;5.70;;;5.30;;
10489;SDS011;35569;48.402;10.670;2022-10-23T01:00:02;5.97;;;5.60;;
10489;SDS011;35569;48.402;10.670;2022-10-23T01:00:43;5.70;;;5.30;;
10489;SDS011;35569;48.402;10.670;2022-10-23T01:01:17;4.93;;;4.73;;
10489;SDS011;35569;48.402;10.670;2022-10-23T01:01:54;5.30;;;5.00;;
10489;SDS011;35569;48.402;10.670;2022-10-23T01:02:27;5.57;;;5.07;;
10489;SDS011;35569;48.402;10.670;2022-10-23T01:02:59;5.50;;;5.30;;
10489;SDS011;35569;48.402;10.670;2022-10-23T01:03:34;5.67;;;5.30;;
10489;SDS011;35569;48.402;10.670;2022-10-23T01:04:07;6.53;;;5.97;;
10489;SDS011;35569;48.402;10.670;2022-10-23T01:04:39;5.50;;;5.20;;
10489;SDS011;35569;48.402;10.670;2022-10-23T01:05:14;4.87;;;4.30;;
10489;SDS011;35569;48.402;10.670;2022-10-23T01:05:49;5.53;;;5.23;;
10489;SDS011;35569;48.402;10.670;2022-10-23T01:06:29;6.00;;;5.60;;
10489;SDS011;35569;48.402;10.670;2022-10-23T01:07:09;6.20;;;5.60;;
10489;SDS011;35569;48.402;10.670;2022-10-23T01:07:49;5.67;;;5.37;;
10489;SDS011;35569;48.402;10.670;2022-10-23T01:08:25;6.30;;;5.67;;
10489;SDS011;35569;48.402;10.670;2022-10-23T01:09:05;6.30;;;5.90;;
10489;SDS011;35569;48.402;10.670;2022-10-23T01:09:43;6.20;;;5.73;;
10489;SDS011;35569;48.402;10.670;2022-10-23T01:10:20;6.30;;;5.87;;
10489;SDS011;35569;48.402;10.670;2022-10-23T01:11:01;6.30;;;5.90;;
10489;SDS011;35569;48.402;10.670;2022-10-23T01:11:38;5.43;;;5.13;;
10489;SDS011;35569;48.402;10.670;2022-10-23T01:12:15;5.80;;;5.40;;
10489;SDS011;35569;48.402;10.670;2022-10-23T01:12:56;6.23;;;5.70;;
10489;SDS011;35569;48.402;10.670;2022-10-23T01:13:34;5.77;;;5.47;;
10489;SDS011;35569;48.402;10.670;2022-10-23T01:14:14;6.10;;;5.60;;
10489;SDS011;35569;48.402;10.670;2022-10-23T01:14:56;5.97;;;5.47;;
10489;SDS011;35569;48.402;10.670;2022-10-23T01:15:32;5.30;;;5.00;;
10489;SDS011;35569;48.402;10.670;2022-10-23T01:16:10;6.03;;;5.67;;
10489;SDS011;35569;48.402;10.670;2022-10-23T01:16:49;6.10;;;5.70;;
10489;SDS011;35569;48.402;10.670;2022-10-23T01:17:28;5.70;;;5.33;;
10489;SDS011;35569;48.402;10.670;2022-10-23T01:18:03;5.70;;;5.30;;
10489;SDS011;35569;48.402;10.670;2022-10-23T01:18:40;5.00;;;4.70;;
10489;SDS011;35569;48.402;10.670;2022-10-23T01:19:19;5.40;;;5.00;;
10489;SDS011;35569;48.402;10.670;2022-10-23T01:20:00;5.50;;;5.17;;
10489;SDS011;35569;48.402;10.670;2022-10-23T01:20:45;5.38;;;5.07;;
10489;SDS011;35569;48.402;10.670;2022-10-23T01:21:21;4.97;;;4.67;;
10489;SDS011;35569;48.402;10.670;2022-10-23T01:21:59;6.20;;;5.70;;
10489;SDS011;35569;48.402;10.670;2022-10-23T01:22:53;5.23;;;4.93;;
10489;SDS011;35569;48.402;10.670;2022-10-23T01:24:41;6.20;;;5.65;;
10489;SDS011;35569;48.402;10.670;2022-10-23T01:25:21;5.10;;;4.83;;
10489;SDS011;35569;48.402;10.670;2022-10-23T01:26:01;5.80;;;5.37;;
10489;SDS011;35569;48.402;10.670;2022-10-23T01:26:54;5.83;;;5.43;;
10489;SDS011;35569;48.402;10.670;2022-10-23T01:27:41;5.00;;;4.70;;
10489;SDS011;35569;48.402;10.670;2022-10-23T01:28:21;5.18;;;4.78;;
10489;SDS011;35569;48.402;10.670;2022-10-23T01:28:58;4.80;;;4.50;;
10489;SDS011;35569;48.402;10.670;2022-10-23T01:29:34;4.67;;;4.40;;
10489;SDS011;35569;48.402;10.670;2022-10-23T01:30:12;4.38;;;4.15;;
10489;SDS011;35569;48.402;10.670;2022-10-23T01:30:52;4.77;;;4.47;;
10489;SDS011;35569;48.402;10.670;2022-10-23T01:31:26;4.55;;;4.35;;
10489;SDS011;35569;48.402;10.670;2022-10-23T01:32:05;3.63;;;3.53;;
10489;SDS011;35569;48.402;10.670;2022-10-23T01:32:42;4.47;;;4.27;;
10489;SDS011;35569;48.402;10.670;2022-10-23T01:33:17;3.95;;;3.80;;
10489;SDS011;35569;48.402;10.670;2022-10-23T01:33:57;4.18;;;3.88;;
10489;SDS011;35569;48.402;10.670;2022-10-23T01:34:34;3.67;;;3.43;;
10489;SDS011;35569;48.402;10.670;2022-10-23T01:35:11;4.13;;;3.93;;
10489;SDS011;35569;48.402;10.670;2022-10-23T01:35:48;3.20;;;3.10;;
10489;SDS011;35569;48.402;10.670;2022-10-23T01:36:22;3.80;;;3.60;;
10489;SDS011;35569;48.402;10.670;2022-10-23T01:36:59;3.87;;;3.77;;
10489;SDS011;35569;48.402;10.670;2022-10-23T01:37:37;4.17;;;3.97;;
10489;SDS011;35569;48.402;10.670;2022-10-23T01:38:13;3.83;;;3.50;;
10489;SDS011;35569;48.402;10.670;2022-10-23T01:38:51;4.17;;;3.87;;
10489;SDS011;35569;48.402;10.670;2022-10-23T01:39:43;4.50;;;4.20;;
10489;SDS011;35569;48.402;10.670;2022-10-23T01:40:21;3.50;;;3.40;;
10489;SDS011;35569;48.402;10.670;2022-10-23T01:40:57;3.83;;;3.73;;
10489;SDS011;35569;48.402;10.670;2022-10-23T01:41:34;3.73;;;3.53;;
10489;SDS011;35569;48.402;10.670;2022-10-23T01:42:14;3.13;;;3.00;;
10489;SDS011;35569;48.402;10.670;2022-10-23T01:42:49;6.90;;;3.47;;
10489;SDS011;35569;48.402;10.670;2022-10-23T01:43:29;4.35;;;4.15;;
10489;SDS011;35569;48.402;10.670;2022-10-23T01:44:06;4.10;;;3.90;;
10489;SDS011;35569;48.402;10.670;2022-10-23T01:44:43;3.77;;;3.50;;
10489;SDS011;35569;48.402;10.670;2022-10-23T01:45:18;3.17;;;3.07;;
10489;SDS011;35569;48.402;10.670;2022-10-23T01:45:57;3.40;;;3.30;;
10489;SDS011;35569;48.402;10.670;2022-10-23T01:46:33;3.00;;;2.90;;
10489;SDS011;35569;48.402;10.670;2022-10-23T01:47:07;3.77;;;3.57;;
10489;SDS011;35569;48.402;10.670;2022-10-23T01:47:58;3.03;;;2.93;;
10489;SDS011;35569;48.402;10.670;2022-10-23T01:48:32;3.33;;;3.23;;
10489;SDS011;35569;48.402;10.670;2022-10-23T01:49:06;3.63;;;3.43;;
10489;SDS011;35569;48.402;10.670;2022-10-23T01:49:43;3.37;;;3.17;;
10489;SDS011;35569;48.402;10.670;2022-10-23T01:50:16;3.43;;;3.30;;
10489;SDS011;35569;48.402;10.670;2022-10-23T01:50:51;3.60;;;3.40;;
10489;SDS011;35569;48.402;10.670;2022-10-23T01:51:27;3.37;;;3.27;;
10489;SDS011;35569;48.402;10.670;2022-10-23T01:52:06;3.43;;;3.23;;
10489;SDS011;35569;48.402;10.670;2022-10-23T01:52:41;3.07;;;2.97;;
10489;SDS011;35569;48.402;10.670;2022-10-23T01:53:16;3.13;;;3.03;;
10489;SDS011;35569;48.402;10.670;2022-10-23T01:53:50;3.40;;;3.30;;
10489;SDS011;35569;48.402;10.670;2022-10-23T01:54:25;3.30;;;3.20;;
10489;SDS011;35569;48.402;10.670;2022-10-23T01:55:06;3.47;;;3.38;;
10489;SDS011;35569;48.402;10.670;2022-10-23T01:55:41;3.03;;;2.93;;
10489;SDS011;35569;48.402;10.670;2022-10-23T01:56:22;3.20;;;3.10;;
10489;SDS011;35569;48.402;10.670;2022-10-23T01:57:00;3.10;;;3.00;;
10489;SDS011;35569;48.402;10.670;2022-10-23T01:57:35;3.80;;;3.60;;
10489;SDS011;35569;48.402;10.670;2022-10-23T01:58:08;3.40;;;3.20;;
10489;SDS011;35569;48.402;10.670;2022-10-23T01:58:45;3.33;;;3.05;;
10489;SDS011;35569;48.402;10.670;2022-10-23T01:59:20;2.80;;;2.70;;
10489;SDS011;35569;48.402;10.670;2022-10-23T01:59:54;3.33;;;3.13;;
10489;SDS011;35569;48.402;10.670;2022-10-23T02:00:29;3.47;;;3.27;;
10489;SDS011;35569;48.402;10.670;2022-10-23T02:01:04;2.70;;;2.60;;
10489;SDS011;35569;48.402;10.670;2022-10-23T02:01:50;2.73;;;2.63;;
10489;SDS011;35569;48.402;10.670;2022-10-23T02:02:24;2.90;;;2.80;;
10489;SDS011;35569;48.402;10.670;2022-10-23T02:03:00;2.90;;;2.80;;
10489;SDS011;35569;48.402;10.670;2022-10-23T02:03:37;3.30;;;3.10;;
10489;SDS011;35569;48.402;10.670;2022-10-23T02:04:11;3.17;;;3.07;;
10489;SDS011;35569;48.402;10.670;2022-10-23T02:04:50;3.03;;;2.83;;
10489;SDS011;35569;48.402;10.670;2022-10-23T02:05:26;3.13;;;3.00;;
10489;SDS011;35569;48.402;10.670;2022-10-23T02:06:00;2.90;;;2.80;;
10489;SDS011;35569;48.402;10.670;2022-10-23T02:06:35;3.30;;;3.20;;
10489;SDS011;35569;48.402;10.670;2022-10-23T02:07:07;2.77;;;2.67;;
10489;SDS011;35569;48.402;10.670;2022-10-23T02:07:40;3.30;;;3.20;;
10489;SDS011;35569;48.402;10.670;2022-10-23T02:08:15;3.00;;;2.90;;
10489;SDS011;35569;48.402;10.670;2022-10-23T02:08:47;3.20;;;3.10;;
10489;SDS011;35569;48.402;10.670;2022-10-23T02:09:20;2.90;;;2.80;;
10489;SDS011;35569;48.402;10.670;2022-10-23T02:09:55;3.67;;;3.57;;
10489;SDS011;35569;48.402;10.670;2022-10-23T02:10:31;3.20;;;3.10;;
10489;SDS011;35569;48.402;10.670;2022-10-23T02:11:07;3.40;;;3.20;;
10489;SDS011;35569;48.402;10.670;2022-10-23T02:11:45;3.00;;;2.80;;
10489;SDS011;35569;48.402;10.670;2022-10-23T02:12:26;3.20;;;3.10;;
10489;SDS011;35569;48.402;10.670;2022-10-23T02:13:04;3.13;;;3.03;;
10489;SDS011;35569;48.402;10.670;2022-10-23T02:13:39;3.30;;;3.20;;
10489;SDS011;35569;48.402;10.670;2022-10-23T02:14:23;2.83;;;2.73;;
10489;SDS011;35569;48.402;10.670;2022-10-23T02:15:02;2.92;;;2.83;;
10489;SDS011;35569;48.402;10.670;2022-10-23T02:15:40;2.83;;;2.73;;
10489;SDS011;35569;48.402;10.670;2022-10-23T02:16:18;3.50;;;3.30;;
10489;SDS011;35569;48.402;10.670;2022-10-23T02:16:57;2.93;;;2.83;;
10489;SDS011;35569;48.402;10.670;2022-10-23T02:17:40;3.50;;;3.40;;
10489;SDS011;35569;48.402;10.670;2022-10-23T02:18:20;2.60;;;2.50;;
10489;SDS011;35569;48.402;10.670;2022-10-23T02:19:03;3.63;;;3.53;;
10489;SDS011;35569;48.402;10.670;2022-10-23T02:19:41;3.50;;;3.40;;
10489;SDS011;35569;48.402;10.670;2022-10-23T02:20:18;3.23;;;3.00;;
10489;SDS011;35569;48.402;10.670;2022-10-23T02:20:56;2.60;;;2.50;;
10489;SDS011;35569;48.402;10.670;2022-10-23T02:21:31;3.07;;;2.97;;
10489;SDS011;35569;48.402;10.670;2022-10-23T02:22:08;3.20;;;3.10;;
10489;SDS011;35569;48.402;10.670;2022-10-23T02:22:48;3.28;;;3.17;;
10489;SDS011;35569;48.402;10.670;2022-10-23T02:23:27;3.10;;;3.00;;
10489;SDS011;35569;48.402;10.670;2022-10-23T02:24:02;3.00;;;2.90;;
10489;SDS011;35569;48.402;10.670;2022-10-23T02:24:45;3.07;;;2.97;;
10489;SDS011;35569;48.402;10.670;2022-10-23T02:25:22;3.30;;;3.20;;
10489;SDS011;35569;48.402;10.670;2022-10-23T02:26:04;3.20;;;3.10;;
10489;SDS011;35569;48.402;10.670;2022-10-23T02:26:41;3.60;;;3.30;;
10489;SDS011;35569;48.402;10.670;2022-10-23T02:27:19;3.30;;;3.10;;
10489;SDS011;35569;48.402;10.670;2022-10-23T02:28:01;2.70;;;2.60;;
10489;SDS011;35569;48.402;10.670;2022-10-23T02:28:46;2.90;;;2.80;;
10489;SDS011;35569;48.402;10.670;2022-10-23T02:29:23;2.85;;;2.75;;
10489;SDS011;35569;48.402;10.670;2022-10-23T02:30:02;2.75;;;2.63;;
10489;SDS011;35569;48.402;10.670;2022-10-23T02:30:39;3.28;;;3.17;;
10489;SDS011;35569;48.402;10.670;2022-10-23T02:31:16;2.70;;;2.60;;
10489;SDS011;35569;48.402;10.670;2022-10-23T02:31:51;2.63;;;2.53;;
10489;SDS011;35569;48.402;10.670;2022-10-23T02:32:26;2.60;;;2.50;;
10489;SDS011;35569;48.402;10.670;2022-10-23T02:32:59;2.53;;;2.42;;
10489;SDS011;35569;48.402;10.670;2022-10-23T02:33:33;2.40;;;2.30;;
10489;SDS011;35569;48.402;10.670;2022-10-23T02:34:09;3.13;;;3.00;;
10489;SDS011;35569;48.402;10.670;2022-10-23T02:34:41;2.58;;;2.45;;
10489;SDS011;35569;48.402;10.670;2022-10-23T02:35:14;2.80;;;2.60;;
10489;SDS011;35569;48.402;10.670;2022-10-23T02:35:54;3.20;;;3.00;;
10489;SDS011;35569;48.402;10.670;2022-10-23T02:36:27;2.80;;;2.70;;
10489;SDS011;35569;48.402;10.670;2022-10-23T02:37:54;2.90;;;2.80;;
10489;SDS011;35569;48.402;10.670;2022-10-23T02:38:32;2.50;;;2.40;;
10489;SDS011;35569;48.402;10.670;2022-10-23T02:39:06;2.50;;;2.40;;
10489;SDS011;35569;48.402;10.670;2022-10-23T02:39:39;2.73;;;2.63;;
10489;SDS011;35569;48.402;10.670;2022-10-23T02:40:14;2.40;;;2.40;;
10489;SDS011;35569;48.402;10.670;2022-10-23T02:40:48;2.10;;;2.07;;
10489;SDS011;35569;48.402;10.670;2022-10-23T02:41:24;2.60;;;2.40;;
10489;SDS011;35569;48.402;10.670;2022-10-23T02:42:03;2.70;;;2.60;;
10489;SDS011;35569;48.402;10.670;2022-10-23T02:42:47;2.50;;;2.30;;
10489;SDS011;35569;48.402;10.670;2022-10-23T02:43:22;2.17;;;2.07;;
10489;SDS011;35569;48.402;10.670;2022-10-23T02:44:00;2.20;;;2.20;;
10489;SDS011;35569;48.402;10.670;2022-10-23T02:44:39;2.20;;;2.10;;
10489;SDS011;35569;48.402;10.670;2022-10-23T02:45:16;2.40;;;2.30;;
10489;SDS011;35569;48.402;10.670;2022-10-23T02:45:53;2.30;;;2.20;;
10489;SDS011;35569;48.402;10.670;2022-10-23T02:46:35;2.77;;;2.67;;
10489;SDS011;35569;48.402;10.670;2022-10-23T02:47:18;2.30;;;2.20;;
10489;SDS011;35569;48.402;10.670;2022-10-23T02:48:02;2.13;;;2.13;;
10489;SDS011;35569;48.402;10.670;2022-10-23T02:48:41;2.10;;;2.10;;
10489;SDS011;35569;48.402;10.670;2022-10-23T02:49:20;2.47;;;2.37;;
10489;SDS011;35569;48.402;10.670;2022-10-23T02:49:58;2.67;;;2.47;;
10489;SDS011;35569;48.402;10.670;2022-10-23T02:50:42;2.53;;;2.43;;
10489;SDS011;35569;48.402;10.670;2022-10-23T02:51:20;2.50;;;2.40;;
10489;SDS011;35569;48.402;10.670;2022-10-23T02:52:01;2.33;;;2.30;;
10489;SDS011;35569;48.402;10.670;2022-10-23T02:52:37;2.00;;;2.00;;
10489;SDS011;35569;48.402;10.670;2022-10-23T02:53:17;2.37;;;2.20;;
10489;SDS011;35569;48.402;10.670;2022-10-23T02:53:55;2.33;;;2.33;;
10489;SDS011;35569;48.402;10.670;2022-10-23T02:54:41;2.33;;;2.23;;
10489;SDS011;35569;48.402;10.670;2022-10-23T02:55:21;1.97;;;1.90;;
10489;SDS011;35569;48.402;10.670;2022-10-23T02:56:05;2.50;;;2.33;;
10489;SDS011;35569;48.402;10.670;2022-10-23T02:56:43;2.50;;;2.40;;
10489;SDS011;35569;48.402;10.670;2022-10-23T02:57:20;2.70;;;2.60;;
10489;SDS011;35569;48.402;10.670;2022-10-23T02:58:00;2.53;;;2.43;;
10489;SDS011;35569;48.402;10.670;2022-10-23T02:58:37;2.50;;;2.40;;
10489;SDS011;35569;48.402;10.670;2022-10-23T02:59:15;2.60;;;2.50;;
10489;SDS011;35569;48.402;10.670;2022-10-23T02:59:58;2.50;;;2.50;;
10489;SDS011;35569;48.402;10.670;2022-10-23T03:00:35;2.73;;;2.63;;
10489;SDS011;35569;48.402;10.670;2022-10-23T03:01:10;2.73;;;2.63;;
10489;SDS011;35569;48.402;10.670;2022-10-23T03:01:47;2.37;;;2.27;;
10489;SDS011;35569;48.402;10.670;2022-10-23T03:02:23;2.70;;;2.60;;
10489;SDS011;35569;48.402;10.670;2022-10-23T03:02:57;2.30;;;2.20;;
10489;SDS011;35569;48.402;10.670;2022-10-23T03:03:34;2.33;;;2.27;;
10489;SDS011;35569;48.402;10.670;2022-10-23T03:04:11;2.40;;;2.30;;
10489;SDS011;35569;48.402;10.670;2022-10-23T03:04:44;2.50;;;2.40;;
10489;SDS011;35569;48.402;10.670;2022-10-23T03:05:19;2.03;;;1.93;;
10489;SDS011;35569;48.402;10.670;2022-10-23T03:05:57;2.40;;;2.20;;
10489;SDS011;35569;48.402;10.670;2022-10-23T03:06:31;2.50;;;2.40;;
10489;SDS011;35569;48.402;10.670;2022-10-23T03:07:03;2.33;;;2.23;;
10489;SDS011;35569;48.402;10.670;2022-10-23T03:07:38;2.70;;;2.60;;
10489;SDS011;35569;48.402;10.670;2022-10-23T03:08:14;2.20;;;2.10;;
10489;SDS011;35569;48.402;10.670;2022-10-23T03:08:52;2.60;;;2.50;;
10489;SDS011;35569;48.402;10.670;2022-10-23T03:09:28;2.53;;;2.33;;
10489;SDS011;35569;48.402;10.670;2022-10-23T03:10:01;2.60;;;2.50;;
10489;SDS011;35569;48.402;10.670;2022-10-23T03:10:37;2.50;;;2.40;;
10489;SDS011;35569;48.402;10.670;2022-10-23T03:11:10;2.20;;;2.20;;
10489;SDS011;35569;48.402;10.670;2022-10-23T03:11:45;2.63;;;2.50;;
10489;SDS011;35569;48.402;10.670;2022-10-23T03:12:17;2.40;;;2.30;;
10489;SDS011;35569;48.402;10.670;2022-10-23T03:12:50;2.40;;;2.30;;
10489;SDS011;35569;48.402;10.670;2022-10-23T03:13:25;2.37;;;2.27;;
10489;SDS011;35569;48.402;10.670;2022-10-23T03:13:57;2.17;;;2.07;;
10489;SDS011;35569;48.402;10.670;2022-10-23T03:14:33;2.60;;;2.50;;
10489;SDS011;35569;48.402;10.670;2022-10-23T03:15:07;2.53;;;2.43;;
10489;SDS011;35569;48.402;10.670;2022-10-23T03:15:41;2.53;;;2.43;;
10489;SDS011;35569;48.402;10.670;2022-10-23T03:16:18;2.20;;;2.10;;
10489;SDS011;35569;48.402;10.670;2022-10-23T03:16:55;2.20;;;2.10;;
10489;SDS011;35569;48.402;10.670;2022-10-23T03:17:28;1.80;;;1.80;;
10489;SDS011;35569;48.402;10.670;2022-10-23T03:18:04;2.90;;;2.80;;
10489;SDS011;35569;48.402;10.670;2022-10-23T03:18:37;2.17;;;2.10;;
10489;SDS011;35569;48.402;10.670;2022-10-23T03:19:11;1.83;;;1.83;;
10489;SDS011;35569;48.402;10.670;2022-10-23T03:19:44;2.83;;;2.30;;
10489;SDS011;35569;48.402;10.670;2022-10-23T03:20:17;2.17;;;2.07;;
10489;SDS011;35569;48.402;10.670;2022-10-23T03:20:52;2.17;;;2.07;;
10489;SDS011;35569;48.402;10.670;2022-10-23T03:21:25;2.27;;;2.17;;
10489;SDS011;35569;48.402;10.670;2022-10-23T03:21:58;1.83;;;1.83;;
10489;SDS011;35569;48.402;10.670;2022-10-23T03:22:33;1.77;;;1.77;;
10489;SDS011;35569;48.402;10.670;2022-10-23T03:23:05;2.50;;;2.40;;
10489;SDS011;35569;48.402;10.670;2022-10-23T03:23:40;2.07;;;2.00;;
10489;SDS011;35569;48.402;10.670;2022-10-23T03:24:20;2.00;;;2.00;;
10489;SDS011;35569;48.402;10.670;2022-10-23T03:24:53;1.93;;;1.93;;
10489;SDS011;35569;48.402;10.670;2022-10-23T03:25:25;1.93;;;1.83;;
10489;SDS011;35569;48.402;10.670;2022-10-23T03:26:02;2.20;;;2.10;;
10489;SDS011;35569;48.402;10.670;2022-10-23T03:26:42;2.20;;;2.10;;
10489;SDS011;35569;48.402;10.670;2022-10-23T03:27:17;1.60;;;1.60;;
10489;SDS011;35569;48.402;10.670;2022-10-23T03:27:49;1.93;;;1.93;;
10489;SDS011;35569;48.402;10.670;2022-10-23T03:28:22;2.13;;;2.03;;
10489;SDS011;35569;48.402;10.670;2022-10-23T03:28:57;2.60;;;2.50;;
10489;SDS011;35569;48.402;10.670;2022-10-23T03:29:29;2.53;;;2.43;;
10489;SDS011;35569;48.402;10.670;2022-10-23T03:30:02;2.57;;;2.47;;
10489;SDS011;35569;48.402;10.670;2022-10-23T03:30:40;2.00;;;1.90;;
10489;SDS011;35569;48.402;10.670;2022-10-23T03:31:12;2.53;;;2.43;;
10489;SDS011;35569;48.402;10.670;2022-10-23T03:31:45;2.20;;;2.10;;
10489;SDS011;35569;48.402;10.670;2022-10-23T03:32:20;2.40;;;2.20;;
10489;SDS011;35569;48.402;10.670;2022-10-23T03:32:52;2.00;;;1.90;;
10489;SDS011;35569;48.402;10.670;2022-10-23T03:33:24;2.20;;;2.10;;
10489;SDS011;35569;48.402;10.670;2022-10-23T03:34:02;2.03;;;1.97;;
10489;SDS011;35569;48.402;10.670;2022-10-23T03:34:42;2.30;;;2.20;;
10489;SDS011;35569;48.402;10.670;2022-10-23T03:35:14;2.53;;;2.47;;
10489;SDS011;35569;48.402;10.670;2022-10-23T03:35:49;2.20;;;2.10;;
10489;SDS011;35569;48.402;10.670;2022-10-23T03:36:21;2.07;;;1.97;;
10489;SDS011;35569;48.402;10.670;2022-10-23T03:37:05;2.00;;;1.93;;
10489;SDS011;35569;48.402;10.670;2022-10-23T03:37:37;2.37;;;2.27;;